createdAt,value
2023-03-19T00:01:20.410Z,52.77
2023-03-19T00:04:09.621Z,52.74
2023-03-19T00:06:56.821Z,52.65
2023-03-19T00:09:44.794Z,52.96
2023-03-19T00:12:31.534Z,53.39
2023-03-19T00:15:18.310Z,53.46
2023-03-19T00:18:06.521Z,53.67
2023-03-19T00:20:52.984Z,53.91
2023-03-19T00:23:39.878Z,54.03
2023-03-19T00:26:28.441Z,54.26
2023-03-19T00:29:15.105Z,54.12
2023-03-19T00:32:02.502Z,54.58
2023-03-19T00:34:48.980Z,54.73
2023-03-19T00:37:36.465Z,54.71
2023-03-19T00:40:23.126Z,55.03
2023-03-19T00:43:09.914Z,55.15
2023-03-19T00:45:56.738Z,55.39
2023-03-19T00:48:43.479Z,55.21
2023-03-19T00:51:30.626Z,55.47
2023-03-19T00:54:16.987Z,55.56
2023-03-19T00:57:03.663Z,55.55
2023-03-19T00:59:50.325Z,55.69
2023-03-19T01:02:37.177Z,55.87
2023-03-19T01:05:23.822Z,55.73
2023-03-19T01:08:10.655Z,55.99
2023-03-19T01:10:57.700Z,55.96
2023-03-19T01:13:44.643Z,55.75
2023-03-19T01:16:31.512Z,55.69
2023-03-19T01:19:18.163Z,56.11
2023-03-19T01:22:05.275Z,56.39
2023-03-19T01:24:52.351Z,56.24
2023-03-19T01:27:40.218Z,56.04
2023-03-19T01:30:26.744Z,56.18
2023-03-19T01:33:14.701Z,56.09
2023-03-19T01:36:05.647Z,56.38
2023-03-19T01:38:52.308Z,56.35
2023-03-19T01:41:38.741Z,56.33
2023-03-19T01:44:26.722Z,56.42
2023-03-19T01:47:27.544Z,56.62
2023-03-19T01:50:25.924Z,56.70
2023-03-19T01:53:15.873Z,56.60
2023-03-19T01:56:16.189Z,56.64
2023-03-19T01:59:12.998Z,56.63
2023-03-19T02:02:05.712Z,56.76
2023-03-19T02:04:58.945Z,57.10
2023-03-19T02:07:46.122Z,57.41
2023-03-19T02:10:34.922Z,57.41
2023-03-19T02:13:23.249Z,57.46
2023-03-19T02:16:10.704Z,57.51
2023-03-19T02:18:58.029Z,57.57
2023-03-19T02:21:44.728Z,57.66
2023-03-19T02:24:42.353Z,57.67
2023-03-19T02:27:28.756Z,58.09
2023-03-19T02:30:27.007Z,58.15
2023-03-19T02:33:16.132Z,57.92
2023-03-19T02:36:05.440Z,58.11
2023-03-19T02:38:53.694Z,58.32
2023-03-19T02:46:04.317Z,58.90
2023-03-19T02:48:50.763Z,58.93
2023-03-19T02:56:01.835Z,59.38
2023-03-19T02:58:48.249Z,59.41
2023-03-19T03:05:48.955Z,59.21
2023-03-19T03:08:36.818Z,59.01
2023-03-19T03:11:23.984Z,59.11
2023-03-19T03:14:11.033Z,59.24
2023-03-19T03:16:58.927Z,59.38
2023-03-19T03:19:45.812Z,59.49
2023-03-19T03:22:32.771Z,59.49
2023-03-19T03:25:19.435Z,59.73
2023-03-19T03:28:06.319Z,59.94
2023-03-19T03:31:02.342Z,60.17
2023-03-19T03:33:49.249Z,60.33
2023-03-19T03:36:36.930Z,60.28
2023-03-19T03:39:23.936Z,60.16
2023-03-19T03:42:10.448Z,60.39
2023-03-19T03:44:57.347Z,60.40
2023-03-19T03:47:44.004Z,60.43
2023-03-19T03:50:30.677Z,60.36
2023-03-19T03:53:17.186Z,60.47
2023-03-19T03:56:03.919Z,60.47
2023-03-19T03:58:51.352Z,60.76
2023-03-19T04:01:38.061Z,60.73
2023-03-19T04:04:24.743Z,60.60
2023-03-19T04:07:11.550Z,61.11
2023-03-19T04:09:59.303Z,60.94
2023-03-19T04:12:49.773Z,61.23
2023-03-19T04:15:36.127Z,61.24
2023-03-19T04:18:22.771Z,61.37
2023-03-19T04:21:09.613Z,61.45
2023-03-19T04:23:56.293Z,61.79
2023-03-19T04:26:42.999Z,62.00
2023-03-19T04:29:29.707Z,62.19
2023-03-19T04:32:16.761Z,62.04
2023-03-19T04:35:04.360Z,62.08
2023-03-19T04:37:50.951Z,61.95
2023-03-19T04:40:37.419Z,62.11
2023-03-19T04:43:24.708Z,62.29
2023-03-19T04:46:11.789Z,62.24
2023-03-19T04:48:59.816Z,62.49
2023-03-19T04:51:46.587Z,62.50
2023-03-19T04:54:34.030Z,62.63
2023-03-19T04:57:21.363Z,62.49
2023-03-19T05:00:08.920Z,62.41
2023-03-19T05:02:55.924Z,62.47
2023-03-19T05:05:43.385Z,62.36
2023-03-19T05:08:29.956Z,62.27
2023-03-19T05:11:16.772Z,62.45
2023-03-19T05:14:22.194Z,62.28
2023-03-19T05:17:11.259Z,62.60
2023-03-19T05:19:58.250Z,62.43
2023-03-19T05:22:44.717Z,62.39
2023-03-19T05:25:31.357Z,62.50
2023-03-19T05:28:17.924Z,62.32
2023-03-19T05:31:05.130Z,61.60
2023-03-19T05:33:52.534Z,61.04
2023-03-19T05:36:39.262Z,59.71
2023-03-19T05:39:26.109Z,57.97
2023-03-19T05:42:13.467Z,56.48
2023-03-19T05:45:00.049Z,55.23
2023-03-19T05:47:49.180Z,55.23
2023-03-19T05:50:36.477Z,55.11
2023-03-19T05:53:24.066Z,53.64
2023-03-19T05:56:11.245Z,52.14
2023-03-19T05:58:58.510Z,52.25
2023-03-19T06:01:45.692Z,52.21
2023-03-19T06:04:33.447Z,52.06
2023-03-19T06:07:20.673Z,51.26
2023-03-19T06:10:08.650Z,49.49
2023-03-19T06:12:56.129Z,48.76
2023-03-19T06:15:43.915Z,48.34
2023-03-19T06:18:32.226Z,47.59
2023-03-19T06:21:19.803Z,46.72
2023-03-19T06:24:08.086Z,46.34
2023-03-19T06:26:57.585Z,46.14
2023-03-19T06:29:44.713Z,46.26
2023-03-19T06:32:32.782Z,46.28
2023-03-19T06:35:20.002Z,46.40
2023-03-19T06:38:07.633Z,46.16
2023-03-19T06:40:56.157Z,45.65
2023-03-19T06:43:43.413Z,44.39
2023-03-19T06:46:30.222Z,43.38
2023-03-19T06:49:18.319Z,42.57
2023-03-19T06:52:06.215Z,42.33
2023-03-19T06:54:53.878Z,40.99
2023-03-19T06:57:41.713Z,40.77
2023-03-19T07:00:28.830Z,39.92
2023-03-19T07:03:16.904Z,40.84
2023-03-19T07:06:03.730Z,42.13
2023-03-19T07:08:50.444Z,43.12
2023-03-19T07:13:40.436Z,42.41
2023-03-19T07:16:27.670Z,43.12
2023-03-19T07:19:14.897Z,43.50
2023-03-19T07:22:02.157Z,44.03
2023-03-19T07:24:49.428Z,44.31
2023-03-19T07:27:36.433Z,45.64
2023-03-19T07:30:24.358Z,45.80
2023-03-19T07:33:11.948Z,45.81
2023-03-19T07:37:49.422Z,44.33
2023-03-19T07:40:40.037Z,43.74
2023-03-19T07:43:33.188Z,43.58
2023-03-19T07:46:19.720Z,43.63
2023-03-19T07:49:11.098Z,43.78
2023-03-19T07:52:10.458Z,43.53
2023-03-19T07:56:08.318Z,42.01
2023-03-19T08:00:11.061Z,40.45
2023-03-19T08:03:44.421Z,40.38
2023-03-19T08:06:31.259Z,39.86
2023-03-19T08:09:18.359Z,39.45
2023-03-19T08:12:06.734Z,39.67
2023-03-19T08:14:53.599Z,38.72
2023-03-19T08:18:08.482Z,38.01
2023-03-19T08:21:30.069Z,37.40
2023-03-19T08:25:32.550Z,36.79
2023-03-19T08:29:28.350Z,36.43
2023-03-19T08:32:17.733Z,36.44
2023-03-19T08:35:06.312Z,36.29
2023-03-19T08:37:54.697Z,36.50
2023-03-19T08:40:41.535Z,37.57
2023-03-19T08:43:41.101Z,36.50
2023-03-19T08:47:37.957Z,35.76
2023-03-19T08:51:56.126Z,35.83
2023-03-19T08:55:20.405Z,35.65
2023-03-19T08:58:51.426Z,35.80
2023-03-19T09:02:50.324Z,35.38
2023-03-19T09:06:51.669Z,35.50
2023-03-19T09:10:46.112Z,35.11
2023-03-19T09:14:01.711Z,34.87
2023-03-19T09:18:25.564Z,35.77
2023-03-19T09:21:41.459Z,35.40
2023-03-19T09:25:18.637Z,35.08
2023-03-19T09:28:52.321Z,35.51
2023-03-19T09:44:03.073Z,33.51
2023-03-19T09:47:31.416Z,31.92
2023-03-19T09:51:59.375Z,30.92
2023-03-19T10:05:54.323Z,30.50
2023-03-19T10:09:13.721Z,30.71
2023-03-19T10:13:16.170Z,30.28
2023-03-19T10:16:40.283Z,29.36
2023-03-19T10:19:58.433Z,29.28
2023-03-19T10:34:34.722Z,30.97
2023-03-19T10:37:38.441Z,30.63
2023-03-19T10:41:45.673Z,30.07
2023-03-19T10:55:26.168Z,28.85
2023-03-19T10:58:41.091Z,28.26
2023-03-19T11:14:27.642Z,27.63
2023-03-19T11:28:26.034Z,26.90
2023-03-19T11:58:54.413Z,29.95
2023-03-19T12:02:38.023Z,30.05
2023-03-19T12:07:00.625Z,28.88
2023-03-19T12:20:54.809Z,29.05
2023-03-19T12:24:38.648Z,28.93
2023-03-19T12:38:21.166Z,28.52
2023-03-19T12:41:12.811Z,27.31
2023-03-19T12:44:38.806Z,28.12
2023-03-19T12:47:40.110Z,28.17
2023-03-19T12:52:59.724Z,27.86
2023-03-19T12:56:00.919Z,28.51
2023-03-19T12:58:58.840Z,28.67
2023-03-19T13:01:54.992Z,29.10
2023-03-19T13:07:24.731Z,29.07
2023-03-19T13:11:10.991Z,28.64
2023-03-19T13:14:38.646Z,29.15
2023-03-19T13:17:41.295Z,29.46
2023-03-19T13:20:59.568Z,29.25
2023-03-19T13:23:53.708Z,29.55
2023-03-19T13:26:41.478Z,29.67
2023-03-19T13:29:39.617Z,28.91
2023-03-19T13:32:39.262Z,28.89
2023-03-19T13:35:35.206Z,28.16
2023-03-19T13:39:14.224Z,28.08
2023-03-19T13:43:30.916Z,27.48
2023-03-19T13:46:17.849Z,27.50
2023-03-19T13:49:21.276Z,27.43
2023-03-19T13:52:11.942Z,28.16
2023-03-19T13:55:30.294Z,29.39
2023-03-19T13:59:03.980Z,29.44
2023-03-19T14:01:51.159Z,29.54
2023-03-19T14:04:38.645Z,29.03
2023-03-19T14:07:29.097Z,28.71
2023-03-19T14:10:27.214Z,28.97
2023-03-19T14:13:28.669Z,29.49
2023-03-19T14:16:29.948Z,30.33
2023-03-19T14:19:21.174Z,30.61
2023-03-19T14:22:39.095Z,30.71
2023-03-19T14:25:48.083Z,30.88
2023-03-19T14:28:45.588Z,31.36
2023-03-19T14:32:07.053Z,31.40
2023-03-19T14:34:57.030Z,30.28
2023-03-19T14:37:49.344Z,29.00
2023-03-19T14:40:45.108Z,28.85
2023-03-19T14:44:08.397Z,29.60
2023-03-19T14:47:33.783Z,29.06
2023-03-19T14:50:33.911Z,30.08
2023-03-19T14:53:39.846Z,29.97
2023-03-19T14:56:32.557Z,30.01
2023-03-19T14:59:36.970Z,29.93
2023-03-19T15:02:42.619Z,29.45
2023-03-19T15:05:36.799Z,29.24
2023-03-19T15:08:24.016Z,29.56
2023-03-19T15:11:13.482Z,29.60
2023-03-19T15:14:03.161Z,29.97
2023-03-19T15:17:15.578Z,30.31
2023-03-19T15:20:06.307Z,31.12
2023-03-19T15:23:13.353Z,31.62
2023-03-19T15:26:14.540Z,32.12
2023-03-19T15:29:04.755Z,32.99
2023-03-19T15:32:04.791Z,33.19
2023-03-19T15:35:03.611Z,33.60
2023-03-19T15:38:00.305Z,33.87
2023-03-19T15:40:52.059Z,34.20
2023-03-19T15:43:41.600Z,34.29
2023-03-19T15:46:33.538Z,34.37
2023-03-19T15:49:33.654Z,34.83
2023-03-19T15:52:21.203Z,35.27
2023-03-19T15:55:11.590Z,35.34
2023-03-19T15:58:08.666Z,35.16
2023-03-19T16:00:56.447Z,35.35
2023-03-19T16:03:46.426Z,35.50
2023-03-19T16:12:42.776Z,36.69
2023-03-19T16:15:46.175Z,36.83
2023-03-19T16:18:53.187Z,36.96
2023-03-19T16:21:43.126Z,37.63
2023-03-19T16:24:39.584Z,38.12
2023-03-19T16:27:37.083Z,39.01
2023-03-19T16:30:27.666Z,39.33
2023-03-19T16:33:15.110Z,39.63
2023-03-19T16:36:03.237Z,40.01
2023-03-19T16:39:23.424Z,40.35
2023-03-19T16:42:13.117Z,40.36
2023-03-19T16:45:15.662Z,40.67
2023-03-19T16:48:07.085Z,41.11
2023-03-19T16:50:53.555Z,42.03
2023-03-19T16:53:40.604Z,42.06
2023-03-19T16:56:31.305Z,42.27
2023-03-19T17:08:55.880Z,43.64
2023-03-19T17:11:43.436Z,44.31
2023-03-19T17:14:31.371Z,44.25
2023-03-19T17:17:20.659Z,44.49
2023-03-19T17:20:21.010Z,44.83
2023-03-19T17:23:14.345Z,45.83
2023-03-19T17:26:28.128Z,44.85
2023-03-19T17:29:14.492Z,45.62
2023-03-19T17:32:05.339Z,45.64
2023-03-19T17:34:52.253Z,45.72
2023-03-19T17:37:41.513Z,46.26
2023-03-19T17:40:35.037Z,46.54
2023-03-19T17:43:22.253Z,46.46
2023-03-19T17:46:15.204Z,46.98
2023-03-19T17:49:04.855Z,47.62
2023-03-19T17:51:52.072Z,47.37
2023-03-19T17:54:39.132Z,47.47
2023-03-19T17:57:27.135Z,47.84
2023-03-19T18:00:20.765Z,48.05
2023-03-19T18:03:14.093Z,48.32
2023-03-19T18:06:05.627Z,48.59
2023-03-19T18:08:52.550Z,48.82
2023-03-19T18:11:40.558Z,49.00
2023-03-19T18:14:27.001Z,49.00
2023-03-19T18:17:20.881Z,49.24
2023-03-19T18:20:13.342Z,49.57
2023-03-19T18:23:06.382Z,49.98
2023-03-19T18:25:53.203Z,50.13
2023-03-19T18:28:40.347Z,50.66
2023-03-19T18:31:31.889Z,50.98
2023-03-19T18:34:19.670Z,51.29
2023-03-19T18:37:06.266Z,51.22
2023-03-19T18:43:06.100Z,51.54
2023-03-19T18:45:54.325Z,52.50
2023-03-19T18:48:42.381Z,52.80
2023-03-19T18:51:29.227Z,52.28
2023-03-19T18:54:16.051Z,51.97
2023-03-19T18:57:03.110Z,51.79
2023-03-19T18:59:49.810Z,51.81
2023-03-19T19:02:38.343Z,51.97
2023-03-19T19:05:31.482Z,51.87
2023-03-19T19:08:20.850Z,51.96
2023-03-19T19:11:09.070Z,51.82
2023-03-19T19:14:03.252Z,51.72
2023-03-19T19:16:51.314Z,51.59
2023-03-19T19:19:42.926Z,51.51
2023-03-19T19:22:43.726Z,51.72
2023-03-19T19:25:30.617Z,52.03
2023-03-19T19:28:28.390Z,51.92
2023-03-19T19:31:26.758Z,52.09
2023-03-19T19:34:15.645Z,51.82
2023-03-19T19:37:06.026Z,51.66
2023-03-19T19:39:57.090Z,51.52
2023-03-19T19:42:48.796Z,51.58
2023-03-19T19:45:39.972Z,51.59
2023-03-19T19:48:35.616Z,51.49
2023-03-19T19:57:42.232Z,51.42
2023-03-19T20:00:35.817Z,51.66
2023-03-19T20:03:39.513Z,51.66
2023-03-19T20:06:28.665Z,51.61
2023-03-19T20:09:16.862Z,51.32
2023-03-19T20:12:03.842Z,51.28
2023-03-19T20:17:54.126Z,51.56
2023-03-19T20:20:40.781Z,51.61
2023-03-19T20:23:29.114Z,51.52
2023-03-19T20:26:19.630Z,51.88
2023-03-19T20:29:06.092Z,52.29
2023-03-19T20:31:53.106Z,52.46
2023-03-19T20:34:40.243Z,52.60
2023-03-19T20:37:27.513Z,52.59
2023-03-19T20:40:18.132Z,52.68
2023-03-19T20:43:07.781Z,52.79
2023-03-19T20:45:57.032Z,52.86
2023-03-19T20:48:43.897Z,52.80
2023-03-19T20:51:31.876Z,52.83
2023-03-19T20:54:18.799Z,52.90
2023-03-19T20:57:05.267Z,53.06
2023-03-19T20:59:52.187Z,53.13
2023-03-19T21:02:38.945Z,53.39
2023-03-19T21:05:35.268Z,53.73
2023-03-19T21:08:48.860Z,54.42
2023-03-19T21:11:41.997Z,54.43
2023-03-19T21:14:28.691Z,54.95
2023-03-19T21:17:15.536Z,55.02
2023-03-19T21:20:02.165Z,54.75
2023-03-19T21:22:54.088Z,55.25
2023-03-19T21:25:42.718Z,55.09
2023-03-19T21:28:34.996Z,55.07
2023-03-19T21:31:21.754Z,55.18
2023-03-19T21:34:13.691Z,55.12
2023-03-19T21:37:00.743Z,54.99
2023-03-19T21:39:48.096Z,54.97
2023-03-19T21:42:36.712Z,54.91
2023-03-19T21:45:29.116Z,55.02
2023-03-19T21:48:25.087Z,54.98
2023-03-19T21:51:16.732Z,54.99
2023-03-19T21:54:03.078Z,55.14
2023-03-19T21:56:49.877Z,55.35
2023-03-19T21:59:36.613Z,55.57
2023-03-19T22:02:26.164Z,55.78
2023-03-19T22:05:31.212Z,55.90
2023-03-19T22:08:20.508Z,55.99
2023-03-19T22:11:18.563Z,56.64
2023-03-19T22:14:18.000Z,56.95
2023-03-19T22:17:05.786Z,56.67
2023-03-19T22:19:52.737Z,56.57
2023-03-19T22:22:40.281Z,56.45
2023-03-19T22:25:31.551Z,56.67
2023-03-19T22:28:31.606Z,56.49
2023-03-19T22:31:18.248Z,56.36
2023-03-19T22:34:04.678Z,56.29
2023-03-19T22:36:51.612Z,56.45
2023-03-19T22:39:37.815Z,56.45
2023-03-19T22:42:26.360Z,56.69
2023-03-19T22:45:32.150Z,56.95
2023-03-19T22:48:20.140Z,57.00
2023-03-19T22:51:08.136Z,57.36
2023-03-19T22:53:55.541Z,57.54
2023-03-19T22:56:42.091Z,57.46
2023-03-19T22:59:28.586Z,57.26
2023-03-19T23:02:16.467Z,57.18
2023-03-19T23:05:32.515Z,57.45
2023-03-19T23:08:19.167Z,57.72
2023-03-19T23:11:05.933Z,57.64
2023-03-19T23:13:53.253Z,57.61
2023-03-19T23:16:45.812Z,57.49
2023-03-19T23:19:38.467Z,57.57
2023-03-19T23:22:25.108Z,57.91
2023-03-19T23:25:26.255Z,57.96
2023-03-19T23:28:22.647Z,58.07
2023-03-19T23:31:10.362Z,58.21
2023-03-19T23:33:56.971Z,58.22
2023-03-19T23:36:44.024Z,58.53
2023-03-19T23:39:30.529Z,58.67
2023-03-19T23:42:27.754Z,58.84
2023-03-19T23:45:38.031Z,59.11
2023-03-19T23:48:28.418Z,59.39
2023-03-19T23:51:17.232Z,59.91
2023-03-19T23:54:03.884Z,60.06
2023-03-19T23:56:52.172Z,60.60
2023-03-19T23:59:41.817Z,61.00
